Airport Name : Presidente Juscelino Kubitschek

Other Name : Brasilia

ICAO : SBBR

IATA : BSB

FAA :

Latitude : -15.8711

Longitude : -47.918625

Country : Brazil

Local Date and Time : 8/22/2018 2:46:00 AM

 

TAF (Terminal Aerodrome Forecast)

TAF SBBR 220400Z 2206/2306 00000KT CAVOK TN13/2209Z TX27/2218Z BECMG 2211/2213 09010KT PROB30 2215/2219 09005KT 9999 SCT040 BECMG 2219/2221 09006KT BECMG 2222/2224 00000KT RMK PDS

 

METAR (METeorological Aerodrome Report)

SBBR 220500Z 00000KT CAVOK 15/10 Q1023

SBBR 220400Z 20004KT CAVOK 15/10 Q1024

SBBR 220300Z 14002KT CAVOK 16/10 Q1024

SBBR 220200Z 00000KT CAVOK 18/10 Q1024